sensor_id;sensor_type;location;lat;lon;timestamp;P1;durP1;ratioP1;P2;durP2;ratioP2
17482;SDS011;8858;52.308;20.994;2023-07-13T00:01:39;14.38;;;9.75;;
17482;SDS011;8858;52.308;20.994;2023-07-13T00:04:07;11.20;;;9.75;;
17482;SDS011;8858;52.308;20.994;2023-07-13T00:06:36;9.52;;;8.57;;
17482;SDS011;8858;52.308;20.994;2023-07-13T00:09:06;10.07;;;9.05;;
17482;SDS011;8858;52.308;20.994;2023-07-13T00:11:37;10.13;;;8.90;;
17482;SDS011;8858;52.308;20.994;2023-07-13T00:14:06;10.25;;;9.18;;
17482;SDS011;8858;52.308;20.994;2023-07-13T00:16:36;8.93;;;8.10;;
17482;SDS011;8858;52.308;20.994;2023-07-13T00:19:06;9.52;;;8.63;;
17482;SDS011;8858;52.308;20.994;2023-07-13T00:21:35;8.85;;;8.00;;
17482;SDS011;8858;52.308;20.994;2023-07-13T00:24:04;9.48;;;8.57;;
17482;SDS011;8858;52.308;20.994;2023-07-13T00:26:33;8.82;;;7.93;;
17482;SDS011;8858;52.308;20.994;2023-07-13T00:29:03;10.70;;;8.73;;
17482;SDS011;8858;52.308;20.994;2023-07-13T00:31:36;8.82;;;8.02;;
17482;SDS011;8858;52.308;20.994;2023-07-13T00:34:04;9.50;;;8.63;;
17482;SDS011;8858;52.308;20.994;2023-07-13T00:36:33;9.67;;;8.27;;
17482;SDS011;8858;52.308;20.994;2023-07-13T00:39:03;10.63;;;9.18;;
17482;SDS011;8858;52.308;20.994;2023-07-13T00:41:32;10.45;;;8.45;;
17482;SDS011;8858;52.308;20.994;2023-07-13T00:44:04;9.93;;;8.45;;
17482;SDS011;8858;52.308;20.994;2023-07-13T00:46:32;9.52;;;8.73;;
17482;SDS011;8858;52.308;20.994;2023-07-13T00:49:02;9.98;;;8.90;;
17482;SDS011;8858;52.308;20.994;2023-07-13T00:51:35;9.43;;;8.45;;
17482;SDS011;8858;52.308;20.994;2023-07-13T00:54:09;13.57;;;9.57;;
17482;SDS011;8858;52.308;20.994;2023-07-13T00:56:40;9.90;;;9.00;;
17482;SDS011;8858;52.308;20.994;2023-07-13T00:59:13;10.27;;;9.27;;
17482;SDS011;8858;52.308;20.994;2023-07-13T01:01:45;9.93;;;8.93;;
17482;SDS011;8858;52.308;20.994;2023-07-13T01:04:15;9.90;;;8.95;;
17482;SDS011;8858;52.308;20.994;2023-07-13T01:06:45;9.95;;;9.05;;
17482;SDS011;8858;52.308;20.994;2023-07-13T01:09:13;11.07;;;9.60;;
17482;SDS011;8858;52.308;20.994;2023-07-13T01:11:44;10.13;;;9.20;;
17482;SDS011;8858;52.308;20.994;2023-07-13T01:14:14;10.27;;;9.38;;
17482;SDS011;8858;52.308;20.994;2023-07-13T01:16:44;10.15;;;9.25;;
17482;SDS011;8858;52.308;20.994;2023-07-13T01:19:19;12.05;;;9.30;;
17482;SDS011;8858;52.308;20.994;2023-07-13T01:22:02;10.40;;;9.50;;
17482;SDS011;8858;52.308;20.994;2023-07-13T01:27:34;10.23;;;9.23;;
17482;SDS011;8858;52.308;20.994;2023-07-13T01:30:04;10.75;;;9.75;;
17482;SDS011;8858;52.308;20.994;2023-07-13T01:32:34;10.05;;;9.15;;
17482;SDS011;8858;52.308;20.994;2023-07-13T01:35:04;10.10;;;9.07;;
17482;SDS011;8858;52.308;20.994;2023-07-13T01:37:35;10.07;;;9.07;;
17482;SDS011;8858;52.308;20.994;2023-07-13T01:40:04;11.30;;;10.20;;
17482;SDS011;8858;52.308;20.994;2023-07-13T01:42:36;11.38;;;9.70;;
17482;SDS011;8858;52.308;20.994;2023-07-13T01:45:05;9.77;;;8.93;;
17482;SDS011;8858;52.308;20.994;2023-07-13T01:47:34;10.73;;;9.73;;
17482;SDS011;8858;52.308;20.994;2023-07-13T01:50:03;10.40;;;9.40;;
17482;SDS011;8858;52.308;20.994;2023-07-13T01:52:36;13.23;;;9.60;;
17482;SDS011;8858;52.308;20.994;2023-07-13T01:55:05;10.57;;;9.57;;
17482;SDS011;8858;52.308;20.994;2023-07-13T01:57:34;10.70;;;9.55;;
17482;SDS011;8858;52.308;20.994;2023-07-13T02:00:04;11.07;;;10.00;;
17482;SDS011;8858;52.308;20.994;2023-07-13T02:02:45;10.80;;;9.70;;
17482;SDS011;8858;52.308;20.994;2023-07-13T02:05:17;12.63;;;10.57;;
17482;SDS011;8858;52.308;20.994;2023-07-13T02:07:48;11.30;;;10.17;;
17482;SDS011;8858;52.308;20.994;2023-07-13T02:10:16;10.68;;;9.57;;
17482;SDS011;8858;52.308;20.994;2023-07-13T02:12:45;12.05;;;10.23;;
17482;SDS011;8858;52.308;20.994;2023-07-13T02:15:17;10.77;;;9.77;;
17482;SDS011;8858;52.308;20.994;2023-07-13T02:17:46;10.53;;;9.57;;
17482;SDS011;8858;52.308;20.994;2023-07-13T02:20:14;11.25;;;9.95;;
17482;SDS011;8858;52.308;20.994;2023-07-13T02:22:42;11.55;;;10.50;;
17482;SDS011;8858;52.308;20.994;2023-07-13T02:25:13;11.30;;;10.15;;
17482;SDS011;8858;52.308;20.994;2023-07-13T02:27:47;10.60;;;9.60;;
17482;SDS011;8858;52.308;20.994;2023-07-13T02:30:16;11.52;;;10.40;;
17482;SDS011;8858;52.308;20.994;2023-07-13T02:32:44;11.13;;;9.50;;
17482;SDS011;8858;52.308;20.994;2023-07-13T02:35:13;11.33;;;9.90;;
17482;SDS011;8858;52.308;20.994;2023-07-13T02:37:43;11.27;;;9.88;;
17482;SDS011;8858;52.308;20.994;2023-07-13T02:40:13;11.95;;;10.48;;
17482;SDS011;8858;52.308;20.994;2023-07-13T02:42:41;11.50;;;10.30;;
17482;SDS011;8858;52.308;20.994;2023-07-13T02:45:11;12.25;;;9.90;;
17482;SDS011;8858;52.308;20.994;2023-07-13T02:47:40;11.77;;;10.40;;
17482;SDS011;8858;52.308;20.994;2023-07-13T02:50:10;10.73;;;9.70;;
17482;SDS011;8858;52.308;20.994;2023-07-13T02:52:43;11.63;;;10.45;;
17482;SDS011;8858;52.308;20.994;2023-07-13T02:55:13;11.00;;;9.88;;
17482;SDS011;8858;52.308;20.994;2023-07-13T02:57:41;11.45;;;10.30;;
17482;SDS011;8858;52.308;20.994;2023-07-13T03:00:11;12.70;;;10.75;;
17482;SDS011;8858;52.308;20.994;2023-07-13T03:02:39;12.10;;;10.82;;
17482;SDS011;8858;52.308;20.994;2023-07-13T03:05:09;12.80;;;10.90;;
17482;SDS011;8858;52.308;20.994;2023-07-13T03:07:41;13.63;;;12.25;;
17482;SDS011;8858;52.308;20.994;2023-07-13T03:10:13;13.57;;;11.48;;
17482;SDS011;8858;52.308;20.994;2023-07-13T03:12:49;13.45;;;12.15;;
17482;SDS011;8858;52.308;20.994;2023-07-13T03:15:22;14.25;;;12.73;;
17482;SDS011;8858;52.308;20.994;2023-07-13T03:17:57;12.85;;;11.55;;
17482;SDS011;8858;52.308;20.994;2023-07-13T03:20:25;13.00;;;11.60;;
17482;SDS011;8858;52.308;20.994;2023-07-13T03:22:55;12.77;;;11.43;;
17482;SDS011;8858;52.308;20.994;2023-07-13T03:25:27;14.73;;;13.18;;
17482;SDS011;8858;52.308;20.994;2023-07-13T03:27:55;15.23;;;12.60;;
17482;SDS011;8858;52.308;20.994;2023-07-13T03:30:26;15.20;;;11.80;;
17482;SDS011;8858;52.308;20.994;2023-07-13T03:32:54;13.60;;;12.13;;
17482;SDS011;8858;52.308;20.994;2023-07-13T03:35:25;13.38;;;12.07;;
17482;SDS011;8858;52.308;20.994;2023-07-13T03:37:53;12.63;;;11.43;;
17482;SDS011;8858;52.308;20.994;2023-07-13T03:40:22;14.18;;;12.07;;
17482;SDS011;8858;52.308;20.994;2023-07-13T03:42:54;17.05;;;12.32;;
17482;SDS011;8858;52.308;20.994;2023-07-13T03:45:22;15.30;;;12.23;;
17482;SDS011;8858;52.308;20.994;2023-07-13T03:47:50;15.90;;;13.18;;
17482;SDS011;8858;52.308;20.994;2023-07-13T03:50:20;16.00;;;13.60;;
17482;SDS011;8858;52.308;20.994;2023-07-13T03:52:50;21.98;;;14.10;;
17482;SDS011;8858;52.308;20.994;2023-07-13T03:55:19;15.88;;;13.75;;
17482;SDS011;8858;52.308;20.994;2023-07-13T03:57:52;22.98;;;13.70;;
17482;SDS011;8858;52.308;20.994;2023-07-13T04:00:27;16.33;;;13.60;;
17482;SDS011;8858;52.308;20.994;2023-07-13T04:02:55;19.88;;;14.43;;
17482;SDS011;8858;52.308;20.994;2023-07-13T04:05:23;17.85;;;14.38;;
17482;SDS011;8858;52.308;20.994;2023-07-13T04:07:52;17.42;;;13.68;;
17482;SDS011;8858;52.308;20.994;2023-07-13T04:10:20;22.27;;;14.25;;
17482;SDS011;8858;52.308;20.994;2023-07-13T04:12:52;22.75;;;14.23;;
17482;SDS011;8858;52.308;20.994;2023-07-13T04:15:21;23.10;;;13.40;;
17482;SDS011;8858;52.308;20.994;2023-07-13T04:17:50;19.30;;;13.90;;
17482;SDS011;8858;52.308;20.994;2023-07-13T04:20:18;21.65;;;15.52;;
17482;SDS011;8858;52.308;20.994;2023-07-13T04:22:47;24.50;;;14.00;;
17482;SDS011;8858;52.308;20.994;2023-07-13T04:25:15;15.48;;;13.75;;
17482;SDS011;8858;52.308;20.994;2023-07-13T04:27:43;15.00;;;13.40;;
17482;SDS011;8858;52.308;20.994;2023-07-13T04:30:13;16.27;;;13.70;;
17482;SDS011;8858;52.308;20.994;2023-07-13T04:32:43;17.63;;;14.02;;
17482;SDS011;8858;52.308;20.994;2023-07-13T04:35:11;15.95;;;13.55;;
17482;SDS011;8858;52.308;20.994;2023-07-13T04:37:40;14.70;;;13.13;;
17482;SDS011;8858;52.308;20.994;2023-07-13T04:40:09;14.88;;;13.05;;
17482;SDS011;8858;52.308;20.994;2023-07-13T04:42:41;20.85;;;13.55;;
17482;SDS011;8858;52.308;20.994;2023-07-13T04:45:10;15.30;;;13.68;;
17482;SDS011;8858;52.308;20.994;2023-07-13T04:47:40;17.35;;;13.55;;
17482;SDS011;8858;52.308;20.994;2023-07-13T04:50:12;15.80;;;13.70;;
17482;SDS011;8858;52.308;20.994;2023-07-13T04:52:46;16.00;;;13.93;;
17482;SDS011;8858;52.308;20.994;2023-07-13T04:55:16;18.73;;;13.43;;
17482;SDS011;8858;52.308;20.994;2023-07-13T04:57:45;18.70;;;12.73;;
17482;SDS011;8858;52.308;20.994;2023-07-13T05:00:14;15.90;;;13.63;;
17482;SDS011;8858;52.308;20.994;2023-07-13T05:02:47;20.15;;;14.05;;
17482;SDS011;8858;52.308;20.994;2023-07-13T05:05:15;20.25;;;14.38;;
17482;SDS011;8858;52.308;20.994;2023-07-13T05:07:44;30.60;;;15.20;;
17482;SDS011;8858;52.308;20.994;2023-07-13T05:10:14;27.13;;;15.27;;
17482;SDS011;8858;52.308;20.994;2023-07-13T05:12:45;25.45;;;15.27;;
17482;SDS011;8858;52.308;20.994;2023-07-13T05:15:14;19.55;;;14.82;;
17482;SDS011;8858;52.308;20.994;2023-07-13T05:17:48;17.73;;;14.80;;
17482;SDS011;8858;52.308;20.994;2023-07-13T05:20:20;21.10;;;14.77;;
17482;SDS011;8858;52.308;20.994;2023-07-13T05:22:48;21.15;;;15.20;;
17482;SDS011;8858;52.308;20.994;2023-07-13T05:25:17;16.75;;;14.65;;
17482;SDS011;8858;52.308;20.994;2023-07-13T05:27:46;18.08;;;14.95;;
17482;SDS011;8858;52.308;20.994;2023-07-13T05:30:16;20.25;;;15.18;;
17482;SDS011;8858;52.308;20.994;2023-07-13T05:32:50;16.45;;;14.93;;
17482;SDS011;8858;52.308;20.994;2023-07-13T05:35:19;20.33;;;15.40;;
17482;SDS011;8858;52.308;20.994;2023-07-13T05:37:47;22.33;;;14.95;;
17482;SDS011;8858;52.308;20.994;2023-07-13T05:40:15;21.35;;;15.98;;
17482;SDS011;8858;52.308;20.994;2023-07-13T05:42:44;17.15;;;15.38;;
17482;SDS011;8858;52.308;20.994;2023-07-13T05:45:16;18.65;;;15.55;;
17482;SDS011;8858;52.308;20.994;2023-07-13T05:47:45;20.80;;;15.65;;
17482;SDS011;8858;52.308;20.994;2023-07-13T05:50:14;17.15;;;15.02;;
17482;SDS011;8858;52.308;20.994;2023-07-13T05:52:43;16.42;;;14.23;;
17482;SDS011;8858;52.308;20.994;2023-07-13T05:55:11;15.88;;;14.20;;
17482;SDS011;8858;52.308;20.994;2023-07-13T05:57:40;16.52;;;14.55;;
17482;SDS011;8858;52.308;20.994;2023-07-13T06:00:10;19.38;;;13.93;;
17482;SDS011;8858;52.308;20.994;2023-07-13T06:02:39;19.13;;;14.02;;
17482;SDS011;8858;52.308;20.994;2023-07-13T06:05:09;17.80;;;14.60;;
17482;SDS011;8858;52.308;20.994;2023-07-13T06:07:38;15.43;;;13.93;;
17482;SDS011;8858;52.308;20.994;2023-07-13T06:10:08;17.65;;;12.75;;
17482;SDS011;8858;52.308;20.994;2023-07-13T06:12:37;22.00;;;13.48;;
17482;SDS011;8858;52.308;20.994;2023-07-13T06:15:05;16.98;;;12.50;;
17482;SDS011;8858;52.308;20.994;2023-07-13T06:17:34;15.68;;;12.88;;
17482;SDS011;8858;52.308;20.994;2023-07-13T06:20:04;16.05;;;13.23;;
17482;SDS011;8858;52.308;20.994;2023-07-13T06:22:33;15.65;;;12.82;;
17482;SDS011;8858;52.308;20.994;2023-07-13T06:25:03;14.82;;;12.02;;
17482;SDS011;8858;52.308;20.994;2023-07-13T06:27:36;14.50;;;12.43;;
17482;SDS011;8858;52.308;20.994;2023-07-13T06:30:05;14.57;;;10.90;;
17482;SDS011;8858;52.308;20.994;2023-07-13T06:32:34;15.90;;;11.90;;
17482;SDS011;8858;52.308;20.994;2023-07-13T06:35:08;12.45;;;10.95;;
17482;SDS011;8858;52.308;20.994;2023-07-13T06:37:39;23.00;;;13.00;;
17482;SDS011;8858;52.308;20.994;2023-07-13T06:40:10;14.25;;;11.57;;
17482;SDS011;8858;52.308;20.994;2023-07-13T06:42:40;12.52;;;11.20;;
17482;SDS011;8858;52.308;20.994;2023-07-13T06:45:08;13.45;;;11.10;;
17482;SDS011;8858;52.308;20.994;2023-07-13T06:47:38;14.23;;;11.40;;
17482;SDS011;8858;52.308;20.994;2023-07-13T06:50:06;13.10;;;9.10;;
17482;SDS011;8858;52.308;20.994;2023-07-13T06:52:35;9.00;;;7.03;;
17482;SDS011;8858;52.308;20.994;2023-07-13T06:55:04;9.68;;;6.85;;
17482;SDS011;8858;52.308;20.994;2023-07-13T06:57:36;11.07;;;5.65;;
17482;SDS011;8858;52.308;20.994;2023-07-13T07:00:06;7.13;;;5.30;;
17482;SDS011;8858;52.308;20.994;2023-07-13T07:02:36;8.25;;;5.55;;
17482;SDS011;8858;52.308;20.994;2023-07-13T07:05:05;9.45;;;5.68;;
17482;SDS011;8858;52.308;20.994;2023-07-13T07:07:33;10.75;;;5.57;;
17482;SDS011;8858;52.308;20.994;2023-07-13T07:10:01;10.05;;;5.35;;
17482;SDS011;8858;52.308;20.994;2023-07-13T07:12:32;5.80;;;5.20;;
17482;SDS011;8858;52.308;20.994;2023-07-13T07:15:02;7.43;;;5.05;;
17482;SDS011;8858;52.308;20.994;2023-07-13T07:17:31;8.25;;;5.55;;
17482;SDS011;8858;52.308;20.994;2023-07-13T07:20:00;8.98;;;5.32;;
17482;SDS011;8858;52.308;20.994;2023-07-13T07:22:28;9.57;;;5.30;;
17482;SDS011;8858;52.308;20.994;2023-07-13T07:25:00;5.68;;;4.95;;
17482;SDS011;8858;52.308;20.994;2023-07-13T07:27:28;5.75;;;4.35;;
17482;SDS011;8858;52.308;20.994;2023-07-13T07:29:59;5.10;;;4.32;;
17482;SDS011;8858;52.308;20.994;2023-07-13T07:32:32;5.38;;;4.60;;
17482;SDS011;8858;52.308;20.994;2023-07-13T07:35:07;7.05;;;4.25;;
17482;SDS011;8858;52.308;20.994;2023-07-13T07:37:36;6.80;;;4.40;;
17482;SDS011;8858;52.308;20.994;2023-07-13T07:40:10;7.03;;;4.78;;
17482;SDS011;8858;52.308;20.994;2023-07-13T07:42:41;10.45;;;4.75;;
17482;SDS011;8858;52.308;20.994;2023-07-13T07:45:11;4.55;;;4.10;;
17482;SDS011;8858;52.308;20.994;2023-07-13T07:47:40;5.38;;;4.10;;
17482;SDS011;8858;52.308;20.994;2023-07-13T07:50:09;4.47;;;4.00;;
17482;SDS011;8858;52.308;20.994;2023-07-13T07:52:38;5.05;;;4.32;;
17482;SDS011;8858;52.308;20.994;2023-07-13T07:55:08;7.45;;;4.05;;
17482;SDS011;8858;52.308;20.994;2023-07-13T07:57:40;6.20;;;4.22;;
17482;SDS011;8858;52.308;20.994;2023-07-13T08:00:14;8.70;;;4.78;;
17482;SDS011;8858;52.308;20.994;2023-07-13T08:02:46;8.77;;;4.30;;
17482;SDS011;8858;52.308;20.994;2023-07-13T08:05:20;9.68;;;4.90;;
17482;SDS011;8858;52.308;20.994;2023-07-13T08:08:05;7.68;;;3.92;;
17482;SDS011;8858;52.308;20.994;2023-07-13T08:10:35;4.93;;;3.72;;
17482;SDS011;8858;52.308;20.994;2023-07-13T08:13:04;5.95;;;4.03;;
17482;SDS011;8858;52.308;20.994;2023-07-13T08:15:39;4.28;;;3.95;;
17482;SDS011;8858;52.308;20.994;2023-07-13T08:18:08;4.45;;;4.05;;
17482;SDS011;8858;52.308;20.994;2023-07-13T08:20:36;5.93;;;4.40;;
17482;SDS011;8858;52.308;20.994;2023-07-13T08:23:05;5.72;;;4.05;;
17482;SDS011;8858;52.308;20.994;2023-07-13T08:25:38;5.05;;;4.65;;
17482;SDS011;8858;52.308;20.994;2023-07-13T08:28:07;4.68;;;4.05;;
17482;SDS011;8858;52.308;20.994;2023-07-13T08:30:35;5.75;;;4.40;;
17482;SDS011;8858;52.308;20.994;2023-07-13T08:33:05;6.20;;;4.32;;
17482;SDS011;8858;52.308;20.994;2023-07-13T08:35:34;6.60;;;4.40;;
17482;SDS011;8858;52.308;20.994;2023-07-13T08:38:03;8.63;;;4.60;;
17482;SDS011;8858;52.308;20.994;2023-07-13T08:40:32;6.95;;;4.50;;
17482;SDS011;8858;52.308;20.994;2023-07-13T08:43:03;6.90;;;4.57;;
17482;SDS011;8858;52.308;20.994;2023-07-13T08:45:33;5.28;;;4.70;;
17482;SDS011;8858;52.308;20.994;2023-07-13T08:48:13;11.63;;;5.00;;
17482;SDS011;8858;52.308;20.994;2023-07-13T08:50:51;4.88;;;4.22;;
17482;SDS011;8858;52.308;20.994;2023-07-13T08:53:40;9.20;;;4.90;;
17482;SDS011;8858;52.308;20.994;2023-07-13T08:56:16;8.80;;;4.82;;
17482;SDS011;8858;52.308;20.994;2023-07-13T08:58:47;9.27;;;4.90;;
17482;SDS011;8858;52.308;20.994;2023-07-13T09:01:23;6.75;;;4.90;;
17482;SDS011;8858;52.308;20.994;2023-07-13T09:04:04;5.25;;;4.53;;
17482;SDS011;8858;52.308;20.994;2023-07-13T09:06:42;6.18;;;4.70;;
17482;SDS011;8858;52.308;20.994;2023-07-13T09:09:28;11.00;;;4.80;;
17482;SDS011;8858;52.308;20.994;2023-07-13T09:12:09;8.60;;;4.95;;
17482;SDS011;8858;52.308;20.994;2023-07-13T09:14:48;16.52;;;4.53;;
17482;SDS011;8858;52.308;20.994;2023-07-13T09:17:20;8.88;;;4.07;;
17482;SDS011;8858;52.308;20.994;2023-07-13T09:20:02;6.00;;;3.30;;
17482;SDS011;8858;52.308;20.994;2023-07-13T09:22:37;10.73;;;4.05;;
17482;SDS011;8858;52.308;20.994;2023-07-13T09:25:12;9.85;;;4.07;;
17482;SDS011;8858;52.308;20.994;2023-07-13T09:27:51;6.93;;;3.92;;
17482;SDS011;8858;52.308;20.994;2023-07-13T09:30:29;7.03;;;3.80;;
17482;SDS011;8858;52.308;20.994;2023-07-13T09:33:01;4.72;;;3.63;;
17482;SDS011;8858;52.308;20.994;2023-07-13T09:35:32;9.35;;;3.88;;
17482;SDS011;8858;52.308;20.994;2023-07-13T09:38:04;5.65;;;3.42;;
17482;SDS011;8858;52.308;20.994;2023-07-13T09:40:42;4.40;;;2.88;;
17482;SDS011;8858;52.308;20.994;2023-07-13T09:43:22;7.63;;;3.17;;
17482;SDS011;8858;52.308;20.994;2023-07-13T09:45:51;4.45;;;2.70;;
17482;SDS011;8858;52.308;20.994;2023-07-13T09:48:19;4.53;;;2.83;;
17482;SDS011;8858;52.308;20.994;2023-07-13T09:50:49;4.72;;;3.00;;
17482;SDS011;8858;52.308;20.994;2023-07-13T09:53:23;5.00;;;3.00;;
17482;SDS011;8858;52.308;20.994;2023-07-13T09:55:55;12.13;;;3.42;;
17482;SDS011;8858;52.308;20.994;2023-07-13T09:58:26;5.25;;;2.80;;
17482;SDS011;8858;52.308;20.994;2023-07-13T10:01:01;5.80;;;2.90;;
17482;SDS011;8858;52.308;20.994;2023-07-13T10:03:35;5.47;;;3.13;;
17482;SDS011;8858;52.308;20.994;2023-07-13T10:06:12;8.98;;;3.00;;
17482;SDS011;8858;52.308;20.994;2023-07-13T10:08:43;2.72;;;2.53;;
17482;SDS011;8858;52.308;20.994;2023-07-13T10:11:17;5.55;;;2.75;;
17482;SDS011;8858;52.308;20.994;2023-07-13T10:13:50;3.05;;;2.78;;
17482;SDS011;8858;52.308;20.994;2023-07-13T10:16:24;3.45;;;2.85;;
17482;SDS011;8858;52.308;20.994;2023-07-13T10:18:55;4.95;;;2.70;;
17482;SDS011;8858;52.308;20.994;2023-07-13T10:21:32;3.50;;;2.47;;
17482;SDS011;8858;52.308;20.994;2023-07-13T10:24:06;4.00;;;2.60;;
17482;SDS011;8858;52.308;20.994;2023-07-13T10:26:43;4.25;;;2.50;;
17482;SDS011;8858;52.308;20.994;2023-07-13T10:29:16;4.88;;;2.70;;
17482;SDS011;8858;52.308;20.994;2023-07-13T10:31:47;4.85;;;2.95;;
17482;SDS011;8858;52.308;20.994;2023-07-13T10:34:16;4.95;;;2.80;;
17482;SDS011;8858;52.308;20.994;2023-07-13T10:36:47;10.98;;;3.45;;
17482;SDS011;8858;52.308;20.994;2023-07-13T10:39:17;7.38;;;2.63;;
17482;SDS011;8858;52.308;20.994;2023-07-13T10:41:50;3.90;;;2.70;;
17482;SDS011;8858;52.308;20.994;2023-07-13T10:44:24;5.53;;;2.90;;
17482;SDS011;8858;52.308;20.994;2023-07-13T10:46:57;31.98;;;5.28;;
17482;SDS011;8858;52.308;20.994;2023-07-13T10:49:30;35.88;;;6.00;;
17482;SDS011;8858;52.308;20.994;2023-07-13T10:52:01;3.78;;;3.08;;
17482;SDS011;8858;52.308;20.994;2023-07-13T10:54:32;7.88;;;3.80;;
17482;SDS011;8858;52.308;20.994;2023-07-13T10:57:14;7.65;;;3.25;;
17482;SDS011;8858;52.308;20.994;2023-07-13T10:59:49;7.22;;;3.40;;
17482;SDS011;8858;52.308;20.994;2023-07-13T11:02:42;4.20;;;3.28;;
17482;SDS011;8858;52.308;20.994;2023-07-13T11:05:17;3.58;;;3.28;;
17482;SDS011;8858;52.308;20.994;2023-07-13T11:08:03;5.55;;;3.55;;
17482;SDS011;8858;52.308;20.994;2023-07-13T11:10:49;5.03;;;3.63;;
17482;SDS011;8858;52.308;20.994;2023-07-13T11:16:33;9.43;;;3.97;;
17482;SDS011;8858;52.308;20.994;2023-07-13T11:22:13;5.45;;;3.90;;
17482;SDS011;8858;52.308;20.994;2023-07-13T11:24:52;5.28;;;3.50;;
17482;SDS011;8858;52.308;20.994;2023-07-13T11:27:35;4.78;;;4.13;;
17482;SDS011;8858;52.308;20.994;2023-07-13T11:30:22;6.03;;;4.38;;
17482;SDS011;8858;52.308;20.994;2023-07-13T11:33:09;6.47;;;4.03;;
17482;SDS011;8858;52.308;20.994;2023-07-13T11:35:44;8.73;;;4.57;;
17482;SDS011;8858;52.308;20.994;2023-07-13T11:38:30;4.97;;;4.47;;
17482;SDS011;8858;52.308;20.994;2023-07-13T11:41:05;8.57;;;4.47;;
17482;SDS011;8858;52.308;20.994;2023-07-13T11:43:34;4.93;;;4.30;;
17482;SDS011;8858;52.308;20.994;2023-07-13T11:46:12;5.00;;;4.50;;
17482;SDS011;8858;52.308;20.994;2023-07-13T11:48:42;11.15;;;7.80;;
17482;SDS011;8858;52.308;20.994;2023-07-13T11:51:16;10.50;;;8.65;;
17482;SDS011;8858;52.308;20.994;2023-07-13T11:53:50;7.90;;;6.90;;
17482;SDS011;8858;52.308;20.994;2023-07-13T11:56:25;5.78;;;5.28;;
17482;SDS011;8858;52.308;20.994;2023-07-13T11:58:54;8.07;;;5.20;;
17482;SDS011;8858;52.308;20.994;2023-07-13T12:01:29;6.13;;;5.05;;
17482;SDS011;8858;52.308;20.994;2023-07-13T12:04:00;6.38;;;4.70;;
17482;SDS011;8858;52.308;20.994;2023-07-13T12:06:31;7.80;;;4.80;;
17482;SDS011;8858;52.308;20.994;2023-07-13T12:09:08;32.28;;;7.47;;
17482;SDS011;8858;52.308;20.994;2023-07-13T12:11:42;29.40;;;5.95;;
17482;SDS011;8858;52.308;20.994;2023-07-13T12:14:13;19.90;;;5.88;;
17482;SDS011;8858;52.308;20.994;2023-07-13T12:16:43;85.05;;;12.05;;
17482;SDS011;8858;52.308;20.994;2023-07-13T12:19:16;39.85;;;7.85;;
17482;SDS011;8858;52.308;20.994;2023-07-13T12:21:48;9.40;;;5.70;;
17482;SDS011;8858;52.308;20.994;2023-07-13T12:24:18;6.93;;;4.90;;
17482;SDS011;8858;52.308;20.994;2023-07-13T12:26:55;5.85;;;5.28;;
17482;SDS011;8858;52.308;20.994;2023-07-13T12:29:28;5.78;;;5.28;;
17482;SDS011;8858;52.308;20.994;2023-07-13T12:31:57;6.50;;;5.90;;
17482;SDS011;8858;52.308;20.994;2023-07-13T12:34:29;5.97;;;5.47;;
17482;SDS011;8858;52.308;20.994;2023-07-13T12:36:59;6.63;;;6.00;;
17482;SDS011;8858;52.308;20.994;2023-07-13T12:39:32;6.75;;;5.97;;
17482;SDS011;8858;52.308;20.994;2023-07-13T12:42:14;8.05;;;6.32;;
17482;SDS011;8858;52.308;20.994;2023-07-13T12:44:52;10.70;;;6.70;;
17482;SDS011;8858;52.308;20.994;2023-07-13T12:47:22;8.75;;;6.57;;
17482;SDS011;8858;52.308;20.994;2023-07-13T12:49:53;11.32;;;7.47;;
17482;SDS011;8858;52.308;20.994;2023-07-13T12:52:27;12.15;;;7.68;;
17482;SDS011;8858;52.308;20.994;2023-07-13T12:55:03;10.57;;;7.53;;
17482;SDS011;8858;52.308;20.994;2023-07-13T12:57:41;11.98;;;7.82;;
17482;SDS011;8858;52.308;20.994;2023-07-13T13:00:23;14.90;;;7.93;;
17482;SDS011;8858;52.308;20.994;2023-07-13T13:02:56;10.18;;;7.10;;
17482;SDS011;8858;52.308;20.994;2023-07-13T13:05:47;12.57;;;7.65;;
17482;SDS011;8858;52.308;20.994;2023-07-13T13:08:16;13.88;;;7.72;;
17482;SDS011;8858;52.308;20.994;2023-07-13T13:10:44;14.73;;;8.32;;
17482;SDS011;8858;52.308;20.994;2023-07-13T13:13:14;11.65;;;7.90;;
17482;SDS011;8858;52.308;20.994;2023-07-13T13:15:43;12.50;;;8.20;;
17482;SDS011;8858;52.308;20.994;2023-07-13T13:18:16;12.43;;;7.93;;
17482;SDS011;8858;52.308;20.994;2023-07-13T13:20:46;13.07;;;8.30;;
17482;SDS011;8858;52.308;20.994;2023-07-13T13:23:15;13.30;;;8.38;;
17482;SDS011;8858;52.308;20.994;2023-07-13T13:25:49;13.93;;;7.75;;
17482;SDS011;8858;52.308;20.994;2023-07-13T13:28:20;13.98;;;7.70;;
17482;SDS011;8858;52.308;20.994;2023-07-13T13:30:50;11.23;;;7.70;;
17482;SDS011;8858;52.308;20.994;2023-07-13T13:33:19;13.57;;;7.85;;
17482;SDS011;8858;52.308;20.994;2023-07-13T13:35:51;15.20;;;7.72;;
17482;SDS011;8858;52.308;20.994;2023-07-13T13:38:20;11.73;;;7.47;;
17482;SDS011;8858;52.308;20.994;2023-07-13T13:40:51;9.63;;;6.35;;
17482;SDS011;8858;52.308;20.994;2023-07-13T13:43:23;10.43;;;6.88;;
17482;SDS011;8858;52.308;20.994;2023-07-13T13:45:55;9.38;;;6.05;;
17482;SDS011;8858;52.308;20.994;2023-07-13T13:48:28;9.93;;;6.50;;
17482;SDS011;8858;52.308;20.994;2023-07-13T13:50:59;9.75;;;6.45;;
17482;SDS011;8858;52.308;20.994;2023-07-13T13:53:30;10.48;;;6.07;;
17482;SDS011;8858;52.308;20.994;2023-07-13T13:55:58;8.93;;;5.38;;
17482;SDS011;8858;52.308;20.994;2023-07-13T13:58:28;8.73;;;5.35;;
17482;SDS011;8858;52.308;20.994;2023-07-13T14:00:56;5.95;;;4.90;;
17482;SDS011;8858;52.308;20.994;2023-07-13T14:03:24;4.47;;;4.07;;
17482;SDS011;8858;52.308;20.994;2023-07-13T14:05:57;6.10;;;4.72;;
17482;SDS011;8858;52.308;20.994;2023-07-13T14:08:25;4.80;;;4.28;;
17482;SDS011;8858;52.308;20.994;2023-07-13T14:10:55;5.97;;;4.65;;
17482;SDS011;8858;52.308;20.994;2023-07-13T14:13:31;5.30;;;4.80;;
17482;SDS011;8858;52.308;20.994;2023-07-13T14:16:02;5.28;;;4.78;;
17482;SDS011;8858;52.308;20.994;2023-07-13T14:18:40;5.95;;;4.80;;
17482;SDS011;8858;52.308;20.994;2023-07-13T14:21:11;6.57;;;4.97;;
17482;SDS011;8858;52.308;20.994;2023-07-13T14:23:41;6.38;;;5.40;;
17482;SDS011;8858;52.308;20.994;2023-07-13T14:26:11;9.95;;;6.53;;
17482;SDS011;8858;52.308;20.994;2023-07-13T14:28:43;9.73;;;6.38;;
17482;SDS011;8858;52.308;20.994;2023-07-13T14:31:15;7.53;;;6.57;;
17482;SDS011;8858;52.308;20.994;2023-07-13T14:33:48;9.48;;;6.40;;
17482;SDS011;8858;52.308;20.994;2023-07-13T14:36:20;9.32;;;6.57;;
17482;SDS011;8858;52.308;20.994;2023-07-13T14:38:53;8.65;;;6.05;;
17482;SDS011;8858;52.308;20.994;2023-07-13T14:41:22;9.88;;;7.07;;
17482;SDS011;8858;52.308;20.994;2023-07-13T14:43:53;8.68;;;6.50;;
17482;SDS011;8858;52.308;20.994;2023-07-13T14:46:26;9.30;;;6.53;;
17482;SDS011;8858;52.308;20.994;2023-07-13T14:48:59;11.02;;;6.55;;
17482;SDS011;8858;52.308;20.994;2023-07-13T14:51:30;7.43;;;6.32;;
17482;SDS011;8858;52.308;20.994;2023-07-13T14:54:01;8.57;;;7.10;;
17482;SDS011;8858;52.308;20.994;2023-07-13T14:56:33;13.55;;;6.72;;
17482;SDS011;8858;52.308;20.994;2023-07-13T14:59:04;10.05;;;7.68;;
17482;SDS011;8858;52.308;20.994;2023-07-13T15:01:34;12.40;;;8.40;;
17482;SDS011;8858;52.308;20.994;2023-07-13T15:04:06;17.15;;;9.95;;
17482;SDS011;8858;52.308;20.994;2023-07-13T15:06:52;14.63;;;9.07;;
17482;SDS011;8858;52.308;20.994;2023-07-13T15:09:22;10.48;;;8.38;;
17482;SDS011;8858;52.308;20.994;2023-07-13T15:11:53;15.40;;;8.63;;